sensor_id;sensor_type;location;lat;lon;timestamp;P1;durP1;ratioP1;P2;durP2;ratioP2
16975;SDS011;8604;48.148;-1.786;2022-11-25T00:02:05;19.43;;;4.87;;
16975;SDS011;8604;48.148;-1.786;2022-11-25T00:04:34;15.83;;;4.50;;
16975;SDS011;8604;48.148;-1.786;2022-11-25T00:07:05;15.07;;;4.57;;
16975;SDS011;8604;48.148;-1.786;2022-11-25T00:09:35;16.47;;;4.67;;
16975;SDS011;8604;48.148;-1.786;2022-11-25T00:12:04;19.20;;;4.83;;
16975;SDS011;8604;48.148;-1.786;2022-11-25T00:14:33;15.00;;;4.33;;
16975;SDS011;8604;48.148;-1.786;2022-11-25T00:17:03;15.60;;;4.40;;
16975;SDS011;8604;48.148;-1.786;2022-11-25T00:19:32;12.27;;;4.30;;
16975;SDS011;8604;48.148;-1.786;2022-11-25T00:22:01;16.77;;;4.27;;
16975;SDS011;8604;48.148;-1.786;2022-11-25T00:24:30;12.37;;;3.90;;
16975;SDS011;8604;48.148;-1.786;2022-11-25T00:27:15;19.07;;;4.20;;
16975;SDS011;8604;48.148;-1.786;2022-11-25T00:29:48;14.03;;;4.30;;
16975;SDS011;8604;48.148;-1.786;2022-11-25T00:32:18;15.33;;;4.10;;
16975;SDS011;8604;48.148;-1.786;2022-11-25T00:35:05;12.27;;;4.57;;
16975;SDS011;8604;48.148;-1.786;2022-11-25T00:37:37;12.97;;;4.17;;
16975;SDS011;8604;48.148;-1.786;2022-11-25T00:40:12;14.77;;;4.47;;
16975;SDS011;8604;48.148;-1.786;2022-11-25T00:42:44;14.03;;;4.30;;
16975;SDS011;8604;48.148;-1.786;2022-11-25T00:45:31;15.43;;;4.33;;
16975;SDS011;8604;48.148;-1.786;2022-11-25T00:48:00;14.93;;;4.07;;
16975;SDS011;8604;48.148;-1.786;2022-11-25T00:50:43;13.27;;;4.10;;
16975;SDS011;8604;48.148;-1.786;2022-11-25T00:53:15;13.80;;;4.23;;
16975;SDS011;8604;48.148;-1.786;2022-11-25T00:55:49;19.70;;;4.97;;
16975;SDS011;8604;48.148;-1.786;2022-11-25T00:58:38;16.27;;;4.77;;
16975;SDS011;8604;48.148;-1.786;2022-11-25T01:01:08;14.70;;;4.30;;
16975;SDS011;8604;48.148;-1.786;2022-11-25T01:03:40;16.87;;;4.60;;
16975;SDS011;8604;48.148;-1.786;2022-11-25T01:06:13;18.03;;;4.33;;
16975;SDS011;8604;48.148;-1.786;2022-11-25T01:08:45;15.47;;;4.20;;
16975;SDS011;8604;48.148;-1.786;2022-11-25T01:11:17;16.77;;;4.57;;
16975;SDS011;8604;48.148;-1.786;2022-11-25T01:13:59;15.97;;;3.97;;
16975;SDS011;8604;48.148;-1.786;2022-11-25T01:16:29;16.23;;;4.33;;
16975;SDS011;8604;48.148;-1.786;2022-11-25T01:19:06;20.03;;;4.80;;
16975;SDS011;8604;48.148;-1.786;2022-11-25T01:22:06;14.47;;;4.30;;
16975;SDS011;8604;48.148;-1.786;2022-11-25T01:25:00;15.53;;;3.80;;
16975;SDS011;8604;48.148;-1.786;2022-11-25T01:27:50;15.23;;;4.27;;
16975;SDS011;8604;48.148;-1.786;2022-11-25T01:30:24;13.10;;;3.93;;
16975;SDS011;8604;48.148;-1.786;2022-11-25T01:32:55;12.40;;;3.80;;
16975;SDS011;8604;48.148;-1.786;2022-11-25T01:35:25;13.53;;;3.87;;
16975;SDS011;8604;48.148;-1.786;2022-11-25T01:37:55;16.50;;;4.00;;
16975;SDS011;8604;48.148;-1.786;2022-11-25T01:40:27;12.50;;;3.87;;
16975;SDS011;8604;48.148;-1.786;2022-11-25T01:43:01;11.60;;;3.50;;
16975;SDS011;8604;48.148;-1.786;2022-11-25T01:45:38;14.93;;;4.00;;
16975;SDS011;8604;48.148;-1.786;2022-11-25T01:48:11;10.40;;;3.13;;
16975;SDS011;8604;48.148;-1.786;2022-11-25T01:50:47;10.80;;;3.70;;
16975;SDS011;8604;48.148;-1.786;2022-11-25T01:53:21;16.80;;;3.83;;
16975;SDS011;8604;48.148;-1.786;2022-11-25T01:55:57;11.70;;;3.50;;
16975;SDS011;8604;48.148;-1.786;2022-11-25T01:58:34;14.47;;;3.47;;
16975;SDS011;8604;48.148;-1.786;2022-11-25T02:01:18;12.27;;;3.23;;
16975;SDS011;8604;48.148;-1.786;2022-11-25T02:03:56;13.90;;;3.83;;
16975;SDS011;8604;48.148;-1.786;2022-11-25T02:07:13;18.23;;;4.00;;
16975;SDS011;8604;48.148;-1.786;2022-11-25T02:09:53;10.83;;;3.50;;
16975;SDS011;8604;48.148;-1.786;2022-11-25T02:12:24;15.47;;;3.67;;
16975;SDS011;8604;48.148;-1.786;2022-11-25T02:14:58;13.67;;;3.57;;
16975;SDS011;8604;48.148;-1.786;2022-11-25T02:17:32;14.10;;;3.67;;
16975;SDS011;8604;48.148;-1.786;2022-11-25T02:20:18;15.63;;;3.70;;
16975;SDS011;8604;48.148;-1.786;2022-11-25T02:22:51;15.63;;;4.07;;
16975;SDS011;8604;48.148;-1.786;2022-11-25T02:25:28;15.37;;;3.53;;
16975;SDS011;8604;48.148;-1.786;2022-11-25T02:28:00;15.83;;;3.50;;
16975;SDS011;8604;48.148;-1.786;2022-11-25T02:30:36;11.87;;;3.23;;
16975;SDS011;8604;48.148;-1.786;2022-11-25T02:33:09;14.10;;;3.70;;
16975;SDS011;8604;48.148;-1.786;2022-11-25T02:35:41;17.00;;;3.40;;
16975;SDS011;8604;48.148;-1.786;2022-11-25T02:38:14;13.37;;;3.43;;
16975;SDS011;8604;48.148;-1.786;2022-11-25T02:40:53;12.67;;;3.07;;
16975;SDS011;8604;48.148;-1.786;2022-11-25T02:43:25;9.27;;;2.70;;
16975;SDS011;8604;48.148;-1.786;2022-11-25T02:45:56;12.50;;;3.30;;
16975;SDS011;8604;48.148;-1.786;2022-11-25T02:48:29;10.17;;;3.10;;
16975;SDS011;8604;48.148;-1.786;2022-11-25T02:51:21;12.70;;;3.17;;
16975;SDS011;8604;48.148;-1.786;2022-11-25T02:53:52;13.47;;;3.43;;
16975;SDS011;8604;48.148;-1.786;2022-11-25T02:56:27;11.00;;;3.10;;
16975;SDS011;8604;48.148;-1.786;2022-11-25T02:59:02;11.57;;;3.30;;
16975;SDS011;8604;48.148;-1.786;2022-11-25T03:01:34;16.10;;;3.43;;
16975;SDS011;8604;48.148;-1.786;2022-11-25T03:04:09;11.93;;;3.10;;
16975;SDS011;8604;48.148;-1.786;2022-11-25T03:09:23;12.30;;;3.20;;
16975;SDS011;8604;48.148;-1.786;2022-11-25T03:11:54;11.30;;;2.90;;
16975;SDS011;8604;48.148;-1.786;2022-11-25T03:14:41;11.20;;;3.13;;
16975;SDS011;8604;48.148;-1.786;2022-11-25T03:17:11;13.07;;;3.23;;
16975;SDS011;8604;48.148;-1.786;2022-11-25T03:19:42;10.50;;;3.10;;
16975;SDS011;8604;48.148;-1.786;2022-11-25T03:22:11;11.93;;;3.10;;
16975;SDS011;8604;48.148;-1.786;2022-11-25T03:24:40;15.70;;;3.70;;
16975;SDS011;8604;48.148;-1.786;2022-11-25T03:27:11;9.77;;;3.40;;
16975;SDS011;8604;48.148;-1.786;2022-11-25T03:29:40;13.00;;;3.13;;
16975;SDS011;8604;48.148;-1.786;2022-11-25T03:32:25;10.40;;;3.17;;
16975;SDS011;8604;48.148;-1.786;2022-11-25T03:34:54;11.50;;;3.30;;
16975;SDS011;8604;48.148;-1.786;2022-11-25T03:37:28;14.20;;;3.50;;
16975;SDS011;8604;48.148;-1.786;2022-11-25T03:39:57;9.27;;;2.77;;
16975;SDS011;8604;48.148;-1.786;2022-11-25T03:42:29;9.23;;;2.80;;
16975;SDS011;8604;48.148;-1.786;2022-11-25T03:44:59;19.73;;;4.20;;
16975;SDS011;8604;48.148;-1.786;2022-11-25T03:47:28;13.70;;;3.30;;
16975;SDS011;8604;48.148;-1.786;2022-11-25T03:50:01;10.50;;;2.80;;
16975;SDS011;8604;48.148;-1.786;2022-11-25T03:52:33;13.00;;;2.97;;
16975;SDS011;8604;48.148;-1.786;2022-11-25T03:55:02;10.50;;;3.00;;
16975;SDS011;8604;48.148;-1.786;2022-11-25T03:57:36;13.60;;;3.70;;
16975;SDS011;8604;48.148;-1.786;2022-11-25T04:00:06;11.50;;;2.90;;
16975;SDS011;8604;48.148;-1.786;2022-11-25T04:02:52;10.63;;;3.00;;
16975;SDS011;8604;48.148;-1.786;2022-11-25T04:05:35;9.87;;;3.23;;
16975;SDS011;8604;48.148;-1.786;2022-11-25T04:08:06;14.33;;;3.67;;
16975;SDS011;8604;48.148;-1.786;2022-11-25T04:10:36;10.47;;;2.90;;
16975;SDS011;8604;48.148;-1.786;2022-11-25T04:13:07;8.83;;;2.97;;
16975;SDS011;8604;48.148;-1.786;2022-11-25T04:15:42;8.63;;;2.90;;
16975;SDS011;8604;48.148;-1.786;2022-11-25T04:18:14;13.43;;;3.00;;
16975;SDS011;8604;48.148;-1.786;2022-11-25T04:20:47;14.03;;;3.33;;
16975;SDS011;8604;48.148;-1.786;2022-11-25T04:23:17;10.57;;;2.60;;
16975;SDS011;8604;48.148;-1.786;2022-11-25T04:26:01;10.93;;;3.20;;
16975;SDS011;8604;48.148;-1.786;2022-11-25T04:28:45;11.40;;;3.13;;
16975;SDS011;8604;48.148;-1.786;2022-11-25T04:31:19;10.73;;;3.00;;
16975;SDS011;8604;48.148;-1.786;2022-11-25T04:33:50;13.87;;;3.10;;
16975;SDS011;8604;48.148;-1.786;2022-11-25T04:36:23;9.57;;;3.00;;
16975;SDS011;8604;48.148;-1.786;2022-11-25T04:38:54;16.90;;;3.90;;
16975;SDS011;8604;48.148;-1.786;2022-11-25T04:41:39;13.53;;;3.10;;
16975;SDS011;8604;48.148;-1.786;2022-11-25T04:44:11;13.80;;;3.00;;
16975;SDS011;8604;48.148;-1.786;2022-11-25T04:46:41;11.93;;;2.70;;
16975;SDS011;8604;48.148;-1.786;2022-11-25T04:51:56;7.97;;;2.70;;
16975;SDS011;8604;48.148;-1.786;2022-11-25T04:54:26;16.63;;;3.03;;
16975;SDS011;8604;48.148;-1.786;2022-11-25T04:56:57;13.60;;;3.30;;
16975;SDS011;8604;48.148;-1.786;2022-11-25T05:02:38;9.97;;;2.60;;
16975;SDS011;8604;48.148;-1.786;2022-11-25T05:05:15;9.50;;;3.00;;
16975;SDS011;8604;48.148;-1.786;2022-11-25T05:07:45;11.43;;;3.30;;
16975;SDS011;8604;48.148;-1.786;2022-11-25T05:10:19;11.70;;;3.07;;
16975;SDS011;8604;48.148;-1.786;2022-11-25T05:12:49;10.40;;;2.93;;
16975;SDS011;8604;48.148;-1.786;2022-11-25T05:15:28;10.67;;;2.93;;
16975;SDS011;8604;48.148;-1.786;2022-11-25T05:18:08;11.63;;;2.67;;
16975;SDS011;8604;48.148;-1.786;2022-11-25T05:20:43;9.87;;;2.70;;
16975;SDS011;8604;48.148;-1.786;2022-11-25T05:23:15;11.13;;;3.10;;
16975;SDS011;8604;48.148;-1.786;2022-11-25T05:25:45;15.43;;;3.47;;
16975;SDS011;8604;48.148;-1.786;2022-11-25T05:28:28;10.13;;;2.97;;
16975;SDS011;8604;48.148;-1.786;2022-11-25T05:31:15;14.23;;;3.67;;
16975;SDS011;8604;48.148;-1.786;2022-11-25T05:33:44;11.73;;;3.43;;
16975;SDS011;8604;48.148;-1.786;2022-11-25T05:36:14;15.07;;;3.40;;
16975;SDS011;8604;48.148;-1.786;2022-11-25T05:38:45;13.50;;;3.37;;
16975;SDS011;8604;48.148;-1.786;2022-11-25T05:41:22;9.27;;;3.20;;
16975;SDS011;8604;48.148;-1.786;2022-11-25T05:43:55;12.73;;;4.10;;
16975;SDS011;8604;48.148;-1.786;2022-11-25T05:49:16;13.20;;;3.10;;
16975;SDS011;8604;48.148;-1.786;2022-11-25T05:51:45;14.90;;;4.40;;
16975;SDS011;8604;48.148;-1.786;2022-11-25T05:54:21;10.47;;;4.67;;
16975;SDS011;8604;48.148;-1.786;2022-11-25T05:56:51;13.00;;;3.93;;
16975;SDS011;8604;48.148;-1.786;2022-11-25T05:59:43;12.67;;;3.50;;
16975;SDS011;8604;48.148;-1.786;2022-11-25T06:02:23;9.40;;;3.13;;
16975;SDS011;8604;48.148;-1.786;2022-11-25T06:04:52;10.87;;;3.67;;
16975;SDS011;8604;48.148;-1.786;2022-11-25T06:07:21;9.80;;;3.50;;
16975;SDS011;8604;48.148;-1.786;2022-11-25T06:09:50;14.83;;;4.27;;
16975;SDS011;8604;48.148;-1.786;2022-11-25T06:12:19;11.27;;;3.93;;
16975;SDS011;8604;48.148;-1.786;2022-11-25T06:14:49;9.57;;;3.67;;
16975;SDS011;8604;48.148;-1.786;2022-11-25T06:17:18;12.73;;;4.13;;
16975;SDS011;8604;48.148;-1.786;2022-11-25T06:19:57;13.90;;;4.33;;
16975;SDS011;8604;48.148;-1.786;2022-11-25T06:22:26;9.60;;;3.17;;
16975;SDS011;8604;48.148;-1.786;2022-11-25T06:24:55;10.37;;;2.90;;
16975;SDS011;8604;48.148;-1.786;2022-11-25T06:27:31;9.20;;;3.20;;
16975;SDS011;8604;48.148;-1.786;2022-11-25T06:30:22;7.40;;;2.70;;
16975;SDS011;8604;48.148;-1.786;2022-11-25T06:33:19;10.23;;;3.10;;
16975;SDS011;8604;48.148;-1.786;2022-11-25T06:35:49;7.17;;;3.00;;
16975;SDS011;8604;48.148;-1.786;2022-11-25T06:38:18;7.57;;;3.10;;
16975;SDS011;8604;48.148;-1.786;2022-11-25T06:40:46;7.73;;;3.00;;
16975;SDS011;8604;48.148;-1.786;2022-11-25T06:43:16;9.47;;;3.30;;
16975;SDS011;8604;48.148;-1.786;2022-11-25T22:31:44;56.03;;;44.17;;
16975;SDS011;8604;48.148;-1.786;2022-11-25T22:34:15;49.63;;;37.97;;
16975;SDS011;8604;48.148;-1.786;2022-11-25T22:36:45;48.37;;;38.63;;
16975;SDS011;8604;48.148;-1.786;2022-11-25T22:39:15;45.53;;;36.37;;
16975;SDS011;8604;48.148;-1.786;2022-11-25T22:41:46;47.70;;;37.47;;
16975;SDS011;8604;48.148;-1.786;2022-11-25T22:44:17;39.97;;;32.90;;
16975;SDS011;8604;48.148;-1.786;2022-11-25T22:46:49;42.07;;;32.20;;
16975;SDS011;8604;48.148;-1.786;2022-11-25T22:49:28;44.37;;;33.27;;
16975;SDS011;8604;48.148;-1.786;2022-11-25T22:52:00;49.00;;;38.27;;
16975;SDS011;8604;48.148;-1.786;2022-11-25T22:54:30;48.33;;;39.30;;
16975;SDS011;8604;48.148;-1.786;2022-11-25T22:56:59;52.33;;;39.97;;
16975;SDS011;8604;48.148;-1.786;2022-11-25T22:59:28;47.17;;;36.77;;
16975;SDS011;8604;48.148;-1.786;2022-11-25T23:01:58;46.60;;;39.67;;
16975;SDS011;8604;48.148;-1.786;2022-11-25T23:04:27;49.27;;;41.27;;
16975;SDS011;8604;48.148;-1.786;2022-11-25T23:06:56;55.77;;;45.20;;
16975;SDS011;8604;48.148;-1.786;2022-11-25T23:09:24;55.50;;;43.60;;
16975;SDS011;8604;48.148;-1.786;2022-11-25T23:11:53;59.33;;;47.00;;
16975;SDS011;8604;48.148;-1.786;2022-11-25T23:14:22;50.60;;;41.23;;
16975;SDS011;8604;48.148;-1.786;2022-11-25T23:16:50;56.03;;;42.77;;
16975;SDS011;8604;48.148;-1.786;2022-11-25T23:19:21;52.13;;;43.53;;
16975;SDS011;8604;48.148;-1.786;2022-11-25T23:21:49;59.63;;;48.07;;
16975;SDS011;8604;48.148;-1.786;2022-11-25T23:24:18;69.27;;;52.80;;
16975;SDS011;8604;48.148;-1.786;2022-11-25T23:26:47;67.10;;;53.33;;
16975;SDS011;8604;48.148;-1.786;2022-11-25T23:29:15;78.37;;;58.67;;
16975;SDS011;8604;48.148;-1.786;2022-11-25T23:31:44;85.93;;;62.73;;
16975;SDS011;8604;48.148;-1.786;2022-11-25T23:34:12;84.17;;;60.23;;
16975;SDS011;8604;48.148;-1.786;2022-11-25T23:36:44;64.97;;;49.63;;
16975;SDS011;8604;48.148;-1.786;2022-11-25T23:39:16;57.17;;;44.40;;
16975;SDS011;8604;48.148;-1.786;2022-11-25T23:41:46;59.57;;;43.77;;
16975;SDS011;8604;48.148;-1.786;2022-11-25T23:44:16;52.93;;;40.07;;
16975;SDS011;8604;48.148;-1.786;2022-11-25T23:46:49;51.27;;;39.97;;
16975;SDS011;8604;48.148;-1.786;2022-11-25T23:49:20;56.17;;;42.43;;
16975;SDS011;8604;48.148;-1.786;2022-11-25T23:51:52;50.07;;;38.13;;
16975;SDS011;8604;48.148;-1.786;2022-11-25T23:54:27;49.67;;;38.40;;
16975;SDS011;8604;48.148;-1.786;2022-11-25T23:57:08;51.27;;;41.47;;
16975;SDS011;8604;48.148;-1.786;2022-11-25T23:59:40;50.17;;;38.50;;
